Time;durP1;ratioP1;P1;durP2;ratioP2;P2;SDS_P1;SDS_P2;PMS_P1;PMS_P2;Temp;Humidity;BMP_temperature;BMP_pressure;BME280_temperature;BME280_humidity;BME280_pressure;Samples;Min_cycle;Max_cycle;Signal;HPM_P1;HPM_P2
2021/11/02 00:01:22;;;;;;;11.15;6.78;;;;;;;11.72;78.92;98405.63;5117304;28;20047;-62
2021/11/02 00:03:53;;;;;;;10.88;6.78;;;;;;;11.84;78.88;98406.16;5117540;28;20492;-62
2021/11/02 00:06:23;;;;;;;11.32;6.20;;;;;;;11.61;78.73;98375.22;5117105;27;20130;-62
2021/11/02 00:08:52;;;;;;;7.78;5.03;;;;;;;11.73;78.34;98386.84;5117156;28;20051;-62
2021/11/02 00:11:25;;;;;;;11.68;6.75;;;;;;;11.66;78.40;98390.41;5117089;28;20044;-62
2021/11/02 00:14:02;;;;;;;9.20;6.03;;;;;;;11.30;77.89;98325.78;5117084;28;20050;-62
2021/11/02 00:16:33;;;;;;;10.52;6.10;;;;;;;11.63;77.90;98382.81;5116749;28;20100;-62
2021/11/02 00:19:05;;;;;;;9.55;6.35;;;;;;;11.60;77.62;98376.06;5116941;28;20054;-62
2021/11/02 00:21:42;;;;;;;8.77;5.93;;;;;;;11.57;77.42;98368.47;5117194;28;20392;-62
2021/11/02 00:24:14;;;;;;;9.90;6.05;;;;;;;11.55;77.48;98369.41;5117144;28;20047;-62
2021/11/02 00:26:47;;;;;;;10.38;5.55;;;;;;;11.47;77.26;98367.03;5116723;28;20046;-62
2021/11/02 00:29:16;;;;;;;9.05;5.97;;;;;;;11.58;77.00;98367.63;5116767;28;20089;-62
2021/11/02 00:31:49;;;;;;;9.73;5.60;;;;;;;11.49;77.00;98360.19;5116708;28;20118;-62
2021/11/02 00:34:25;;;;;;;9.18;5.75;;;;;;;11.51;77.11;98363.53;5117012;28;20047;-62
2021/11/02 00:36:58;;;;;;;9.93;5.88;;;;;;;11.50;77.16;98354.19;5116578;28;20050;-62
2021/11/02 00:39:33;;;;;;;11.55;6.57;;;;;;;11.48;76.78;98353.41;5116492;28;20122;-62
2021/11/02 00:42:05;;;;;;;10.95;7.25;;;;;;;11.54;76.81;98348.13;5116859;28;20051;-62
2021/11/02 00:44:43;;;;;;;9.38;6.13;;;;;;;11.68;76.85;98351.22;5116521;28;20113;-62
2021/11/02 00:47:21;;;;;;;10.63;6.63;;;;;;;11.73;76.72;98343.41;5115463;28;20130;-62
2021/11/02 00:49:56;;;;;;;12.00;6.40;;;;;;;11.72;76.63;98341.72;5116397;28;20063;-62
2021/11/02 00:52:29;;;;;;;11.00;6.53;;;;;;;11.77;76.73;98327.94;5115997;28;20054;-62
2021/11/02 00:55:02;;;;;;;11.32;7.10;;;;;;;11.73;76.46;98333.19;5116233;28;20039;-62
2021/11/02 00:57:36;;;;;;;14.02;7.18;;;;;;;11.72;76.61;98322.13;5116447;28;20089;-62
2021/11/02 01:00:07;;;;;;;11.60;7.55;;;;;;;11.81;76.26;98326.97;5115347;28;20051;-62
2021/11/02 01:02:40;;;;;;;12.45;7.47;;;;;;;11.80;76.30;98321.91;5116439;28;20135;-62
2021/11/02 01:05:15;;;;;;;11.98;7.68;;;;;;;11.74;76.42;98316.94;5116324;28;20463;-62
2021/11/02 01:07:47;;;;;;;12.43;7.72;;;;;;;11.63;76.34;98311.28;5115995;28;20050;-62
2021/11/02 01:10:19;;;;;;;13.63;8.50;;;;;;;11.60;76.57;98301.13;5115980;28;20134;-62
2021/11/02 01:12:54;;;;;;;12.65;7.78;;;;;;;11.57;76.63;98307.16;5116269;28;20051;-62
2021/11/02 01:15:30;;;;;;;14.50;8.57;;;;;;;11.46;76.27;98278.50;5115826;28;20040;-62
2021/11/02 01:18:05;;;;;;;16.08;9.38;;;;;;;11.65;76.41;98296.72;5115801;28;20504;-62
2021/11/02 01:20:41;;;;;;;15.18;9.48;;;;;;;11.63;76.25;98281.47;5116079;28;20561;-62
2021/11/02 01:23:15;;;;;;;17.92;9.82;;;;;;;11.64;75.90;98298.44;5114493;28;20127;-62
2021/11/02 01:25:47;;;;;;;19.08;9.70;;;;;;;11.66;75.95;98285.66;5115604;28;20044;-62
2021/11/02 01:28:20;;;;;;;17.08;10.35;;;;;;;11.70;75.71;98293.22;5114762;28;20122;-62
2021/11/02 01:30:50;;;;;;;16.80;10.88;;;;;;;11.71;75.68;98288.94;5115846;28;20494;-62
2021/11/02 01:33:26;;;;;;;;;;;;;;;11.75;75.41;98280.31;5116019;28;20497;-62
2021/11/02 01:36:05;;;;;;;15.65;9.45;;;;;;;11.68;75.09;98277.09;5115447;28;19934;-62
2021/11/02 01:38:39;;;;;;;15.07;9.60;;;;;;;11.53;75.21;98272.38;5115703;28;20047;-62
2021/11/02 01:41:18;;;;;;;15.18;9.80;;;;;;;11.47;75.24;98266.59;5115388;28;20128;-62
2021/11/02 01:43:57;;;;;;;19.52;9.98;;;;;;;11.41;75.81;98257.38;5114159;28;20048;-62
2021/11/02 01:46:32;;;;;;;18.25;10.48;;;;;;;11.39;75.72;98256.56;5114300;28;20058;-62
2021/11/02 01:49:04;;;;;;;17.58;10.80;;;;;;;11.35;76.00;98242.19;5115215;28;20052;-62
2021/11/02 01:51:40;;;;;;;14.73;9.80;;;;;;;11.43;75.69;98247.94;5115461;28;20051;-62
2021/11/02 01:54:10;;;;;;;16.25;9.75;;;;;;;11.44;75.89;98239.41;5115404;28;20397;-62
2021/11/02 01:56:48;;;;;;;17.98;10.27;;;;;;;11.36;75.82;98233.66;5115083;28;20078;-62
2021/11/02 01:59:26;;;;;;;;;;;;;;;11.42;75.72;98221.53;5114558;28;20056;-62
2021/11/02 02:02:21;;;;;;;16.25;9.60;;;;;;;11.50;75.99;98233.28;5114087;28;20010;-62
2021/11/02 02:05:05;;;;;;;16.50;10.75;;;;;;;11.47;75.69;98239.31;5113329;28;20130;-62
2021/11/02 02:08:00;;;;;;;18.15;10.20;;;;;;;11.52;75.55;98239.19;5114636;28;20032;-62
2021/11/02 02:10:46;;;;;;;16.48;10.00;;;;;;;11.48;75.41;98227.38;5113571;28;20101;-62
2021/11/02 02:13:27;;;;;;;17.60;10.50;;;;;;;11.51;75.11;98225.59;5114804;28;20058;-62
2021/11/02 02:16:12;;;;;;;16.50;10.10;;;;;;;11.59;75.17;98213.41;5114729;28;20096;-62
2021/11/02 02:18:51;;;;;;;20.38;10.88;;;;;;;11.53;75.27;98210.19;5114607;28;20051;-62
2021/11/02 02:21:50;;;;;;;17.92;10.98;;;;;;;11.51;75.29;98196.63;5114581;28;20058;-62
2021/11/02 02:24:40;;;;;;;17.30;10.25;;;;;;;11.54;75.03;98194.00;5099406;28;20035;-62
2021/11/02 02:27:30;;;;;;;18.45;11.68;;;;;;;11.60;75.08;98202.31;5113260;28;20055;-62
2021/11/02 02:30:06;;;;;;;18.00;10.73;;;;;;;11.58;75.16;98191.31;5114379;28;20496;-62
2021/11/02 02:32:43;;;;;;;17.50;11.07;;;;;;;11.60;75.32;98199.75;5114434;28;20138;-62
2021/11/02 02:35:19;;;;;;;17.70;11.05;;;;;;;11.66;74.94;98185.97;5115549;27;20391;-62
2021/11/02 02:37:56;;;;;;;17.35;10.77;;;;;;;11.59;75.06;98177.63;5114688;28;20047;-62
2021/11/02 02:40:28;;;;;;;17.95;11.05;;;;;;;11.59;75.40;98181.94;5114582;28;20485;-62
2021/11/02 02:43:02;;;;;;;19.33;11.20;;;;;;;11.69;75.32;98179.09;5114326;27;20500;-62
2021/11/02 02:45:41;;;;;;;18.88;11.27;;;;;;;11.68;75.21;98176.59;5114272;28;20105;-62
2021/11/02 02:48:19;;;;;;;18.00;10.80;;;;;;;11.70;75.08;98175.66;5114463;28;20048;-62
2021/11/02 02:50:54;;;;;;;17.73;11.25;;;;;;;11.71;74.70;98168.84;5114128;28;20108;-62
2021/11/02 02:53:25;;;;;;;19.77;11.30;;;;;;;11.72;74.93;98179.00;5114060;28;20073;-62
2021/11/02 02:56:03;;;;;;;19.40;11.48;;;;;;;11.64;74.75;98183.44;5114139;28;20058;-62
2021/11/02 02:58:35;;;;;;;19.05;11.35;;;;;;;11.63;74.47;98184.34;5113803;28;20370;-61
2021/11/02 03:01:16;;;;;;;21.35;12.23;;;;;;;11.70;74.13;98185.88;5114396;28;20067;-62
2021/11/02 03:03:50;;;;;;;19.65;12.50;;;;;;;11.71;74.32;98176.50;5112831;28;20039;-62
2021/11/02 03:06:41;;;;;;;22.30;12.68;;;;;;;11.71;74.24;98177.31;5113968;28;20047;-62
2021/11/02 03:09:22;;;;;;;19.20;11.45;;;;;;;11.70;74.11;98175.66;5113172;28;20484;-62
2021/11/02 03:11:59;;;;;;;21.05;12.60;;;;;;;11.78;74.11;98172.88;5113949;28;20044;-62
2021/11/02 03:14:45;;;;;;;20.10;11.63;;;;;;;11.86;73.95;98164.09;5114261;28;20054;-62
2021/11/02 03:17:24;;;;;;;20.27;11.80;;;;;;;11.75;73.95;98148.25;5118188;28;20055;-62
2021/11/02 03:20:37;;;;;;;18.30;9.80;;;;;;;11.81;74.09;98148.06;5118510;28;20109;-62
2021/11/02 03:45:14;;;;;;;19.80;11.40;;;;;;;11.61;73.41;98119.69;5117934;28;20051;-62
2021/11/02 03:56:26;;;;;;;19.58;11.23;;;;;;;11.34;74.31;98110.28;5094940;28;20048;-62
2021/11/02 03:59:23;;;;;;;19.80;11.65;;;;;;;11.42;74.58;98126.22;5094072;28;20118;-62
2021/11/02 04:24:39;;;;;;;21.08;12.48;;;;;;;11.52;75.45;98155.72;5117251;28;20403;-61
2021/11/02 04:27:39;;;;;;;20.63;11.98;;;;;;;11.48;76.39;98156.69;5116274;28;20062;-62
2021/11/02 05:47:53;;;;;;;21.10;10.23;;;;;;;10.92;79.14;98178.66;5055958;28;20149;-62
2021/11/02 05:50:54;;;;;;;18.27;10.63;;;;;;;10.94;79.33;98186.31;5055803;28;20044;-62
2021/11/02 05:56:25;;;;;;;19.08;10.35;;;;;;;10.97;79.11;98227.03;5044120;28;20036;-62
2021/11/02 05:59:13;;;;;;;19.92;10.30;;;;;;;11.00;78.99;98226.97;5071394;28;20041;-62
2021/11/02 06:01:55;;;;;;;20.50;11.05;;;;;;;11.04;78.70;98223.44;5114980;28;20093;-62
2021/11/02 06:07:28;;;;;;;;;;;;;;;11.08;78.54;98209.75;5115189;28;20058;-62
2021/11/02 06:10:17;;;;;;;18.02;10.18;;;;;;;11.11;78.98;98207.13;5114781;28;19926;-62
2021/11/02 06:29:20;;;;;;;20.92;11.52;;;;;;;10.93;79.39;98180.34;5114387;28;20126;-62
2021/11/02 06:31:56;;;;;;;22.33;11.35;;;;;;;10.96;79.40;98171.78;5114760;28;20451;-62
2021/11/02 06:34:36;;;;;;;19.15;11.43;;;;;;;10.89;79.13;98170.25;5114353;28;20051;-62
2021/11/02 06:59:22;;;;;;;21.77;11.60;;;;;;;10.71;78.61;98180.06;5113693;28;20054;-62
2021/11/02 07:15:51;;;;;;;23.10;12.55;;;;;;;11.08;78.75;98214.84;5107499;28;20036;-61
2021/11/02 07:18:24;;;;;;;22.35;11.18;;;;;;;11.09;78.75;98214.81;5093380;28;20550;-62
2021/11/02 07:21:02;;;;;;;20.45;11.63;;;;;;;11.03;79.14;98206.47;5093340;28;20058;-62
2021/11/02 07:23:40;;;;;;;25.75;13.38;;;;;;;11.06;79.33;98231.94;5093443;28;20052;-62
2021/11/02 08:46:28;;;;;;;28.08;15.45;;;;;;;11.10;81.00;98261.59;5096118;28;20055;-62
2021/11/02 08:49:05;;;;;;;22.67;13.32;;;;;;;11.14;81.08;98256.38;5096192;28;20447;-62
2021/11/02 08:51:35;;;;;;;23.67;13.45;;;;;;;11.13;81.02;98264.91;5096006;28;20127;-62
2021/11/02 08:54:04;;;;;;;26.67;14.88;;;;;;;11.10;80.91;98265.00;5095890;28;20044;-62
2021/11/02 08:56:35;;;;;;;25.77;13.10;;;;;;;11.15;81.33;98267.44;5096156;28;20494;-62
2021/11/02 08:59:05;;;;;;;26.33;14.48;;;;;;;11.08;81.21;98271.88;5095876;28;20090;-62
2021/11/02 09:01:48;;;;;;;28.48;14.52;;;;;;;11.07;81.39;98269.31;5095774;28;20048;-61
2021/11/02 09:04:21;;;;;;;25.13;13.50;;;;;;;11.10;81.11;98274.38;5095795;28;20052;-62
2021/11/02 09:06:52;;;;;;;28.50;13.82;;;;;;;11.11;81.09;98276.06;5095579;28;20122;-61
2021/11/02 09:09:25;;;;;;;23.58;13.68;;;;;;;11.10;81.55;98274.38;5095867;28;20473;-61
2021/11/02 09:12:02;;;;;;;26.77;15.63;;;;;;;11.11;81.55;98273.50;5095576;28;20051;-62
2021/11/02 09:14:36;;;;;;;27.38;14.70;;;;;;;10.98;81.48;98254.25;5095552;28;20457;-61
2021/11/02 09:17:08;;;;;;;28.92;15.35;;;;;;;11.07;81.41;98271.88;5095453;28;20071;-62
2021/11/02 09:19:40;;;;;;;31.48;17.45;;;;;;;11.08;81.05;98273.56;5095404;28;20051;-61
2021/11/02 09:22:15;;;;;;;29.95;16.48;;;;;;;11.09;80.84;98273.53;5095380;28;20496;-61
2021/11/02 09:24:46;;;;;;;27.55;15.02;;;;;;;11.09;81.70;98267.56;5095624;28;20436;-62
2021/11/02 09:27:16;;;;;;;24.23;14.68;;;;;;;11.16;81.29;98269.09;5095374;28;20111;-62
2021/11/02 09:29:53;;;;;;;25.77;14.00;;;;;;;10.90;81.41;98230.63;5095241;28;20043;-61
2021/11/02 09:32:24;;;;;;;23.98;14.27;;;;;;;11.12;80.92;98272.59;5061554;28;20497;-62
2021/11/02 09:34:55;;;;;;;26.45;13.95;;;;;;;10.95;81.27;98249.22;5095262;28;20047;-61
2021/11/02 09:37:32;;;;;;;27.67;14.73;;;;;;;11.10;81.40;98264.16;5095016;28;20047;-61
2021/11/02 09:40:11;;;;;;;28.23;14.82;;;;;;;11.23;81.03;98262.94;5095171;28;20494;-62
2021/11/02 09:43:19;;;;;;;28.20;13.40;;;;;;;11.18;81.44;98252.03;5094893;28;20157;-61
2021/11/02 09:46:12;;;;;;;27.50;14.25;;;;;;;11.28;81.31;98253.44;5092956;28;20101;-61
2021/11/02 09:49:07;;;;;;;21.65;12.48;;;;;;;11.18;80.84;98246.94;5094660;28;20570;-62
2021/11/02 09:52:05;;;;;;;26.98;13.15;;;;;;;11.18;81.16;98252.03;5093411;28;20135;-62
2021/11/02 09:55:04;;;;;;;20.92;12.63;;;;;;;11.05;80.78;98235.34;5094562;28;20036;-62
2021/11/02 09:57:55;;;;;;;23.27;12.73;;;;;;;11.07;80.75;98251.47;5094702;28;20077;-61
2021/11/02 10:00:51;;;;;;;24.80;13.68;;;;;;;11.11;80.94;98245.41;5094448;28;20059;-61
2021/11/02 10:03:49;;;;;;;28.10;14.13;;;;;;;11.06;80.97;98242.97;5093634;28;20101;-61
2021/11/02 10:06:33;;;;;;;31.05;15.05;;;;;;;11.08;81.27;98250.59;5061954;28;20126;-61
2021/11/02 10:09:08;;;;;;;26.92;13.32;;;;;;;11.01;81.36;98254.19;5094119;28;20040;-61
2021/11/02 10:11:41;;;;;;;23.92;12.57;;;;;;;10.92;81.30;98249.31;5094596;28;20098;-61
2021/11/02 10:14:32;;;;;;;25.40;13.25;;;;;;;10.97;81.26;98245.75;5094347;28;20052;-61
2021/11/02 10:17:26;;;;;;;22.55;12.70;;;;;;;11.02;81.34;98240.53;5093036;28;20040;-61
2021/11/02 10:20:09;;;;;;;25.58;14.57;;;;;;;11.06;81.61;98232.75;5092879;28;20048;-61
2021/11/02 10:23:10;;;;;;;24.38;13.70;;;;;;;11.12;81.60;98237.72;5094135;28;20044;-61
2021/11/02 10:26:13;;;;;;;23.75;13.15;;;;;;;11.18;81.14;98241.81;5093253;28;20051;-62
2021/11/02 10:29:05;;;;;;;28.77;15.48;;;;;;;11.21;81.46;98244.28;5094386;28;20048;-61
2021/11/02 10:31:49;;;;;;;27.25;13.95;;;;;;;11.18;80.99;98246.94;5094722;28;20089;-61
2021/11/02 10:34:46;;;;;;;29.25;15.88;;;;;;;10.97;80.96;98206.63;5099168;28;20048;-61
2021/11/02 10:37:25;;;;;;;29.45;14.90;;;;;;;11.18;81.18;98237.53;5093901;28;20063;-61
2021/11/02 10:40:14;;;;;;;23.80;13.45;;;;;;;11.19;81.20;98223.91;5094017;28;20036;-62
2021/11/02 10:43:01;;;;;;;26.85;13.82;;;;;;;11.23;81.07;98229.75;5103690;28;20036;-61
2021/11/02 10:45:36;;;;;;;27.45;14.75;;;;;;;11.11;80.98;98204.56;5104640;28;20040;-61
2021/11/02 10:48:09;;;;;;;18.52;12.07;;;;;;;11.19;80.94;98218.78;5101558;28;20511;-61
2021/11/02 10:50:40;;;;;;;22.90;13.25;;;;;;;11.26;80.64;98210.09;5105413;28;20032;-61
2021/11/02 10:53:11;;;;;;;23.00;12.38;;;;;;;11.21;80.91;98211.06;5105791;28;20136;-61
2021/11/02 10:56:06;;;;;;;23.27;13.68;;;;;;;11.31;80.71;98210.81;5101612;28;20046;-61
2021/11/02 10:58:46;;;;;;;22.33;12.35;;;;;;;11.31;80.95;98205.69;5094089;28;20135;-61
2021/11/02 11:01:16;;;;;;;21.13;12.43;;;;;;;11.35;80.97;98203.88;5093701;28;20052;-61
2021/11/02 11:03:49;;;;;;;22.92;13.13;;;;;;;11.40;80.78;98207.13;5094007;28;20051;-61
2021/11/02 11:06:22;;;;;;;23.50;13.48;;;;;;;11.37;80.85;98209.81;5093017;28;20044;-61
2021/11/02 11:08:53;;;;;;;21.13;11.65;;;;;;;11.40;80.85;98202.88;5093456;28;20093;-61
2021/11/02 11:11:27;;;;;;;18.05;11.48;;;;;;;11.38;80.59;98204.63;5093457;28;20044;-61
2021/11/02 11:14:05;;;;;;;20.58;12.27;;;;;;;11.38;80.24;98203.78;5093772;28;20036;-61
2021/11/02 11:16:38;;;;;;;24.48;12.52;;;;;;;11.36;80.46;98206.41;5093794;28;20390;-62
2021/11/02 11:19:11;;;;;;;19.80;12.18;;;;;;;11.28;80.06;98202.38;5100598;28;20048;-60
2021/11/02 11:21:42;;;;;;;23.77;12.27;;;;;;;11.23;80.21;98188.88;5113781;28;20131;-62
2021/11/02 11:24:17;;;;;;;20.92;12.38;;;;;;;11.33;80.54;98197.97;5114115;28;20065;-63
2021/11/02 11:26:53;;;;;;;23.88;11.70;;;;;;;11.34;80.55;98192.00;5113371;28;20048;-62
2021/11/02 11:29:26;;;;;;;20.02;11.18;;;;;;;11.32;80.41;98198.88;5113360;28;20047;-63
2021/11/02 11:31:58;;;;;;;20.92;12.02;;;;;;;11.25;80.15;98192.25;5113738;28;20039;-63
2021/11/02 11:34:33;;;;;;;21.10;12.38;;;;;;;11.33;80.48;98197.97;5113687;28;20062;-62
2021/11/02 11:37:07;;;;;;;23.40;12.77;;;;;;;11.31;80.77;98192.06;5109216;28;20059;-62
2021/11/02 11:39:40;;;;;;;23.30;12.48;;;;;;;11.14;80.57;98181.47;5096954;28;20052;-62
2021/11/02 11:42:18;;;;;;;20.27;12.32;;;;;;;11.15;80.88;98196.78;5097640;28;20131;-63
2021/11/02 11:44:53;;;;;;;21.70;12.25;;;;;;;11.09;80.99;98191.81;5097294;28;20105;-63
2021/11/02 11:47:26;;;;;;;21.42;12.02;;;;;;;10.98;81.29;98193.00;5097217;28;20051;-63
2021/11/02 11:49:56;;;;;;;20.75;11.55;;;;;;;11.01;81.41;98205.69;5096869;28;20040;-63
2021/11/02 11:52:26;;;;;;;20.48;11.73;;;;;;;10.88;81.46;98176.22;5097219;28;20392;-63
2021/11/02 11:54:57;;;;;;;22.90;12.23;;;;;;;10.94;80.99;98191.41;5097037;28;20070;-63
2021/11/02 11:57:31;;;;;;;23.08;11.95;;;;;;;10.90;81.11;98195.75;5097059;28;20110;-63
2021/11/02 12:00:08;;;;;;;22.83;11.80;;;;;;;10.85;81.35;98199.28;5096204;28;20060;-63
2021/11/02 12:02:49;;;;;;;21.42;12.20;;;;;;;10.81;81.35;98206.19;5096969;28;20551;-63
2021/11/02 12:05:23;;;;;;;21.67;11.65;;;;;;;10.87;80.86;98205.19;5096893;28;20073;-62
2021/11/02 12:08:04;;;;;;;23.90;12.38;;;;;;;10.84;80.70;98205.28;5096836;28;20055;-63
2021/11/02 12:10:37;;;;;;;23.02;12.57;;;;;;;10.63;80.93;98212.56;5096741;28;20046;-63
2021/11/02 12:13:11;;;;;;;21.70;10.98;;;;;;;10.55;81.28;98206.84;5096800;28;20044;-63
2021/11/02 12:18:48;;;;;;;22.02;11.95;;;;;;;10.31;81.75;98209.97;5096494;28;20048;-63
2021/11/02 12:21:21;;;;;;;23.20;12.23;;;;;;;10.22;81.75;98214.44;5096743;28;20048;-63
2021/11/02 12:23:52;;;;;;;22.02;11.23;;;;;;;10.19;82.09;98205.16;5096433;28;20054;-62
2021/11/02 12:26:21;;;;;;;19.23;11.23;;;;;;;10.17;81.66;98206.91;5096499;28;20093;-62
2021/11/02 12:28:51;;;;;;;20.10;11.45;;;;;;;10.03;82.21;98196.13;5096307;28;20051;-62
2021/11/02 12:31:26;;;;;;;23.08;11.15;;;;;;;9.96;81.75;98212.44;5096600;28;20431;-62
2021/11/02 12:33:57;;;;;;;21.35;11.25;;;;;;;9.88;82.72;98204.97;5095967;28;20481;-62
2021/11/02 12:36:28;;;;;;;19.55;11.60;;;;;;;9.90;82.90;98212.59;5096038;28;20072;-63
2021/11/02 12:39:01;;;;;;;22.67;11.63;;;;;;;9.95;82.14;98209.06;5096123;28;20078;-62
2021/11/02 12:41:31;;;;;;;21.15;11.05;;;;;;;9.85;83.06;98199.94;5095995;28;20097;-62
2021/11/02 12:44:06;;;;;;;22.80;11.80;;;;;;;9.90;82.96;98212.59;5096485;28;20387;-63
2021/11/02 12:46:40;;;;;;;21.75;11.55;;;;;;;10.00;83.51;98216.59;5096443;28;20055;-62
2021/11/02 12:49:10;;;;;;;20.67;11.70;;;;;;;10.00;82.89;98214.91;5095163;28;20109;-63
2021/11/02 12:51:53;;;;;;;23.15;11.57;;;;;;;10.08;82.90;98212.16;5095930;28;20040;-63
2021/11/02 12:54:28;;;;;;;21.67;10.98;;;;;;;10.21;82.72;98207.66;5078731;28;20047;-63
2021/11/02 12:57:04;;;;;;;21.95;11.90;;;;;;;10.31;82.59;98215.06;5095858;28;20036;-62
2021/11/02 12:59:39;;;;;;;19.90;10.70;;;;;;;10.43;82.53;98211.41;5095690;28;20135;-63
2021/11/02 13:02:20;;;;;;;21.42;11.55;;;;;;;10.55;82.45;98204.28;5095809;28;20404;-63
2021/11/02 13:04:55;;;;;;;22.77;11.52;;;;;;;10.55;82.30;98206.00;5095418;28;20070;-63
2021/11/02 13:07:26;;;;;;;20.52;11.25;;;;;;;10.41;82.38;98188.50;5095599;28;20403;-62
2021/11/02 13:09:57;;;;;;;17.63;10.40;;;;;;;10.47;82.33;98206.19;5095693;28;20040;-63
2021/11/02 13:12:27;;;;;;;23.15;11.73;;;;;;;10.48;82.52;98212.97;5095294;28;20052;-62
2021/11/02 13:15:10;;;;;;;20.73;10.55;;;;;;;10.50;82.43;98208.66;5095293;28;20075;-62
2021/11/02 13:17:49;;;;;;;19.13;10.32;;;;;;;10.51;82.41;98217.97;5095285;28;20044;-62
2021/11/02 13:20:32;;;;;;;18.38;9.57;;;;;;;10.50;82.25;98213.75;5095444;28;20052;-63
2021/11/02 13:23:09;;;;;;;17.98;9.98;;;;;;;10.52;82.21;98209.47;5095060;28;20123;-61
2021/11/02 13:25:40;;;;;;;16.38;9.90;;;;;;;10.43;82.14;98214.78;5094977;28;20082;-61
2021/11/02 13:28:13;;;;;;;15.70;9.23;;;;;;;10.43;82.42;98206.28;5095183;28;20474;-61
2021/11/02 13:30:46;;;;;;;19.58;10.32;;;;;;;10.59;81.71;98220.34;5095144;28;20127;-61
2021/11/02 13:33:24;;;;;;;14.65;9.07;;;;;;;10.62;81.57;98218.56;5095455;28;20044;-61
2021/11/02 13:35:56;;;;;;;17.23;9.30;;;;;;;10.66;81.40;98217.63;5095317;28;20512;-61
2021/11/02 13:38:35;;;;;;;18.10;10.70;;;;;;;10.72;81.48;98221.75;5094978;28;20048;-61
2021/11/02 13:41:17;;;;;;;20.37;11.10;;;;;;;10.53;81.34;98217.97;5094987;28;20044;-61
2021/11/02 13:43:50;;;;;;;19.70;10.80;;;;;;;10.33;81.05;98218.44;5094904;28;20048;-61
2021/11/02 13:46:22;;;;;;;22.33;11.73;;;;;;;10.23;81.86;98227.16;5098973;28;20126;-61
2021/11/02 13:48:54;;;;;;;24.85;14.73;;;;;;;10.23;81.80;98224.59;5103642;28;20048;-61
2021/11/02 13:51:25;;;;;;;23.90;13.40;;;;;;;10.38;82.18;98226.81;5104357;28;20077;-61
2021/11/02 13:53:56;;;;;;;22.48;11.13;;;;;;;10.31;82.07;98229.53;5103549;28;20045;-62
2021/11/02 13:56:29;;;;;;;17.00;10.10;;;;;;;10.27;82.25;98213.44;5103813;28;20070;-63
2021/11/02 13:59:00;;;;;;;17.98;10.18;;;;;;;10.50;82.13;98233.31;5109380;28;20405;-63
2021/11/02 14:01:32;;;;;;;24.23;12.35;;;;;;;10.45;82.06;98238.53;5107845;28;20043;-63
2021/11/02 14:04:09;;;;;;;12.23;7.30;;;;;;;10.41;82.29;98241.19;5114869;28;20130;-63
2021/11/02 14:06:42;;;;;;;11.63;6.30;;;;;;;10.40;81.92;98245.47;5114813;28;20049;-63
2021/11/02 14:09:14;;;;;;;12.32;6.82;;;;;;;10.46;82.28;98242.75;5114771;28;20043;-62
2021/11/02 14:11:43;;;;;;;11.73;6.72;;;;;;;10.54;82.07;98248.53;5115020;28;20067;-63
2021/11/02 14:14:30;;;;;;;14.40;7.45;;;;;;;10.59;81.88;98254.34;5114837;28;20043;-63
2021/11/02 14:17:15;;;;;;;13.13;7.35;;;;;;;10.37;81.54;98254.88;5114783;28;20055;-63
2021/11/02 14:19:49;;;;;;;12.43;6.90;;;;;;;10.32;81.54;98246.53;5114693;28;20127;-62
2021/11/02 14:22:46;;;;;;;14.18;8.05;;;;;;;10.37;81.41;98253.16;5114591;28;20044;-63
2021/11/02 14:25:51;;;;;;;12.15;6.95;;;;;;;10.48;80.93;98258.03;5114281;28;20051;-62
2021/11/02 14:28:33;;;;;;;11.90;6.97;;;;;;;10.46;81.52;98259.78;5092274;28;20106;-63
2021/11/02 14:31:08;;;;;;;13.65;7.65;;;;;;;10.39;81.46;98258.25;5092065;28;20580;-63
2021/11/02 14:33:46;;;;;;;11.85;6.57;;;;;;;10.45;81.60;98258.94;5091389;28;20405;-63
2021/11/02 14:36:17;;;;;;;18.83;10.27;;;;;;;10.51;81.62;98263.88;5092045;28;20494;-62
2021/11/02 14:38:47;;;;;;;14.25;8.90;;;;;;;10.26;81.42;98259.38;5091849;28;20125;-61
2021/11/02 14:41:29;;;;;;;14.40;8.73;;;;;;;10.15;81.28;98259.63;5091906;28;20079;-63
2021/11/02 14:44:23;;;;;;;15.80;9.27;;;;;;;10.12;82.12;98264.81;5091919;28;20131;-63
2021/11/02 14:47:00;;;;;;;17.95;9.80;;;;;;;10.12;82.55;98264.81;5091862;28;20047;-63
2021/11/02 14:49:44;;;;;;;14.82;9.25;;;;;;;10.10;82.17;98258.88;5091716;28;20194;-63
2021/11/02 14:52:28;;;;;;;11.88;7.07;;;;;;;10.15;82.54;98263.91;5095773;28;20043;-63
2021/11/02 14:55:00;;;;;;;10.40;6.57;;;;;;;9.99;82.47;98248.06;5114112;28;20075;-63
2021/11/02 14:57:52;;;;;;;12.98;7.40;;;;;;;10.26;82.74;98278.09;5114374;28;20138;-63
2021/11/02 15:00:38;;;;;;;17.08;8.48;;;;;;;10.29;82.06;98278.03;5113823;28;20047;-63
2021/11/02 15:03:17;;;;;;;12.02;7.10;;;;;;;9.96;81.80;98276.97;5114417;28;20186;-63
2021/11/02 15:05:50;;;;;;;12.20;7.15;;;;;;;10.04;82.50;98281.94;5114315;28;20473;-63
2021/11/02 15:08:25;;;;;;;11.80;6.63;;;;;;;10.10;82.38;98281.81;5114051;28;20489;-63
2021/11/02 15:10:54;;;;;;;12.45;7.03;;;;;;;10.08;82.22;98283.53;5113688;28;20054;-63
2021/11/02 15:13:27;;;;;;;12.70;7.15;;;;;;;10.13;82.01;98294.50;5113929;28;20055;-63
2021/11/02 15:16:02;;;;;;;10.35;6.78;;;;;;;10.25;82.38;98301.88;5113922;28;20051;-63
2021/11/02 15:18:44;;;;;;;12.15;6.68;;;;;;;10.24;82.02;98295.13;5113826;28;20056;-63
2021/11/02 15:21:21;;;;;;;11.85;6.88;;;;;;;10.25;82.13;98296.78;5114091;28;20054;-62
2021/11/02 15:23:55;;;;;;;11.40;6.63;;;;;;;10.27;82.49;98295.03;5113768;28;20401;-62
2021/11/02 15:26:51;;;;;;;10.70;5.85;;;;;;;10.20;81.83;98293.50;5114060;28;20038;-62
2021/11/02 15:29:26;;;;;;;10.88;6.60;;;;;;;10.17;82.16;98293.59;5113884;28;20148;-61
2021/11/02 15:32:09;;;;;;;11.38;6.22;;;;;;;10.17;82.23;98303.78;5113948;28;20557;-62
2021/11/02 15:34:44;;;;;;;12.85;6.90;;;;;;;10.20;82.40;98307.97;5114006;28;20514;-61
2021/11/02 15:37:16;;;;;;;11.55;6.55;;;;;;;10.17;82.76;98301.22;5113715;28;20044;-62
2021/11/02 15:39:55;;;;;;;9.68;5.72;;;;;;;10.26;82.46;98307.84;5113628;28;20044;-62
2021/11/02 15:42:28;;;;;;;10.10;5.70;;;;;;;10.18;82.26;98290.16;5113650;28;20043;-62
2021/11/02 15:45:02;;;;;;;9.27;5.00;;;;;;;10.26;81.99;98308.69;5113617;28;20047;-62
2021/11/02 15:47:39;;;;;;;7.13;4.35;;;;;;;10.21;82.59;98297.75;5113680;28;20044;-62
2021/11/02 15:50:16;;;;;;;8.38;4.88;;;;;;;10.18;82.12;98300.34;5113602;28;20047;-62
2021/11/02 15:52:46;;;;;;;6.75;4.22;;;;;;;10.05;82.19;98289.53;5113545;28;20046;-62
2021/11/02 15:55:22;;;;;;;6.72;3.50;;;;;;;10.12;81.81;98320.88;5113878;28;20378;-61
2021/11/02 15:57:56;;;;;;;4.97;2.85;;;;;;;10.08;81.79;98309.88;5113550;28;20043;-63
2021/11/02 16:00:32;;;;;;;6.13;3.50;;;;;;;10.03;81.67;98311.66;5112823;28;20408;-61
2021/11/02 16:03:10;;;;;;;5.32;2.85;;;;;;;9.94;81.96;98313.56;5113492;28;20036;-61
2021/11/02 16:05:42;;;;;;;5.25;3.08;;;;;;;9.91;82.18;98316.19;5113398;28;20051;-61
2021/11/02 16:08:16;;;;;;;5.75;2.92;;;;;;;9.88;81.77;98312.00;5113799;28;20043;-61
2021/11/02 16:10:53;;;;;;;5.45;3.03;;;;;;;9.91;81.21;98316.19;5113479;28;20485;-63
2021/11/02 16:13:27;;;;;;;4.80;2.50;;;;;;;9.80;81.93;98315.56;5113702;28;20393;-62
2021/11/02 16:16:01;;;;;;;5.93;2.42;;;;;;;9.78;81.60;98312.19;5113350;28;20126;-63
2021/11/02 16:18:33;;;;;;;4.78;2.65;;;;;;;9.65;80.74;98305.66;5113313;28;20059;-63
2021/11/02 16:21:07;;;;;;;4.53;2.40;;;;;;;9.68;80.76;98334.47;5113361;28;20048;-63
2021/11/02 16:23:41;;;;;;;4.82;2.45;;;;;;;9.59;80.25;98336.34;5114493;28;20047;-63
2021/11/02 16:26:18;;;;;;;4.65;2.63;;;;;;;9.57;80.05;98338.09;5117012;28;20126;-63
2021/11/02 16:28:51;;;;;;;3.63;2.08;;;;;;;9.55;80.13;98343.19;5116918;28;20481;-63
2021/11/02 16:31:23;;;;;;;6.28;2.50;;;;;;;9.49;80.17;98342.47;5117134;28;20066;-63
2021/11/02 16:33:57;;;;;;;4.78;2.72;;;;;;;9.42;80.66;98357.88;5116667;28;20069;-63
2021/11/02 16:36:32;;;;;;;4.60;2.60;;;;;;;9.34;79.86;98359.69;5117188;28;20475;-62
2021/11/02 16:39:19;;;;;;;4.25;2.08;;;;;;;9.31;79.90;98369.91;5116722;28;20048;-63
2021/11/02 16:41:55;;;;;;;3.92;2.05;;;;;;;9.25;80.44;98371.75;5116613;28;20040;-63